sensor_id;sensor_type;location;lat;lon;timestamp;pressure;altitude;pressure_sealevel;temperature;humidity
6530;BME280;3298;42.688;23.366;2023-01-28T07:47:54;51835.81;;;-145.06;70.88
6530;BME280;3298;42.688;23.366;2023-01-28T07:50:21;51823.53;;;-145.06;72.62
6530;BME280;3298;42.688;23.366;2023-01-28T07:52:47;51844.00;;;-145.06;72.37
6530;BME280;3298;42.688;23.366;2023-01-28T07:55:14;51831.72;;;-145.06;73.23
6530;BME280;3298;42.688;23.366;2023-01-28T07:57:49;51864.47;;;-145.06;73.23
6530;BME280;3298;42.688;23.366;2023-01-28T08:00:17;51827.63;;;-145.06;72.83
6530;BME280;3298;42.688;23.366;2023-01-28T08:02:44;51835.81;;;-145.06;73.30
6530;BME280;3298;42.688;23.366;2023-01-28T08:05:14;51858.31;;;-145.06;73.05
6530;BME280;3298;42.688;23.366;2023-01-28T08:07:41;51839.91;;;-145.06;73.00
6530;BME280;3298;42.688;23.366;2023-01-28T08:10:10;51841.94;;;-145.06;73.31
6530;BME280;3298;42.688;23.366;2023-01-28T08:12:37;51831.72;;;-145.06;73.56
6530;BME280;3298;42.688;23.366;2023-01-28T08:15:05;51852.19;;;-145.06;73.38
6530;BME280;3298;42.688;23.366;2023-01-28T08:17:32;51856.28;;;-145.06;72.47
6530;BME280;3298;42.688;23.366;2023-01-28T08:19:59;51852.19;;;-145.06;72.65
6530;BME280;3298;42.688;23.366;2023-01-28T08:22:27;51841.94;;;-145.06;72.45
6530;BME280;3298;42.688;23.366;2023-01-28T08:24:54;51823.53;;;-145.06;72.77
6530;BME280;3298;42.688;23.366;2023-01-28T08:27:20;51839.91;;;-145.06;71.76
6530;BME280;3298;42.688;23.366;2023-01-28T08:29:48;51829.66;;;-145.06;71.91
6530;BME280;3298;42.688;23.366;2023-01-28T08:32:14;51852.19;;;-145.06;71.51
6530;BME280;3298;42.688;23.366;2023-01-28T08:34:41;51827.63;;;-145.06;71.42
6530;BME280;3298;42.688;23.366;2023-01-28T08:37:08;51827.63;;;-145.06;71.19
6530;BME280;3298;42.688;23.366;2023-01-28T08:39:36;51831.72;;;-145.06;71.16
6530;BME280;3298;42.688;23.366;2023-01-28T08:42:04;51827.63;;;-145.06;70.77
6530;BME280;3298;42.688;23.366;2023-01-28T08:44:31;51839.91;;;-145.06;70.72
6530;BME280;3298;42.688;23.366;2023-01-28T08:46:58;51807.16;;;-145.06;69.32
6530;BME280;3298;42.688;23.366;2023-01-28T08:49:25;51823.53;;;-145.06;69.31
6530;BME280;3298;42.688;23.366;2023-01-28T08:51:52;51833.75;;;-145.06;68.77
6530;BME280;3298;42.688;23.366;2023-01-28T08:54:19;51860.38;;;-145.06;68.52
6530;BME280;3298;42.688;23.366;2023-01-28T08:56:48;51829.66;;;-145.06;68.34
6530;BME280;3298;42.688;23.366;2023-01-28T08:59:16;51852.19;;;-145.06;68.77
6530;BME280;3298;42.688;23.366;2023-01-28T09:01:43;51821.47;;;-145.06;68.60
6530;BME280;3298;42.688;23.366;2023-01-28T09:04:10;51819.44;;;-145.06;68.25
6530;BME280;3298;42.688;23.366;2023-01-28T09:06:36;51827.63;;;-145.06;67.90
6530;BME280;3298;42.688;23.366;2023-01-28T09:09:03;51798.97;;;-145.06;68.65
6530;BME280;3298;42.688;23.366;2023-01-28T09:11:30;51837.84;;;-145.06;68.48
6530;BME280;3298;42.688;23.366;2023-01-28T09:13:59;51864.47;;;-145.06;69.07
6530;BME280;3298;42.688;23.366;2023-01-28T09:16:26;51819.44;;;-145.06;68.59
6530;BME280;3298;42.688;23.366;2023-01-28T09:18:52;51833.75;;;-145.06;68.24
6530;BME280;3298;42.688;23.366;2023-01-28T09:21:19;51829.66;;;-145.06;68.68
6530;BME280;3298;42.688;23.366;2023-01-28T09:23:46;51839.91;;;-145.06;68.71
6530;BME280;3298;42.688;23.366;2023-01-28T09:26:13;51819.44;;;-145.06;68.86
6530;BME280;3298;42.688;23.366;2023-01-28T09:28:40;51821.47;;;-145.06;68.89
6530;BME280;3298;42.688;23.366;2023-01-28T09:31:10;51809.19;;;-145.06;69.44
6530;BME280;3298;42.688;23.366;2023-01-28T09:33:38;51829.66;;;-145.06;69.23
6530;BME280;3298;42.688;23.366;2023-01-28T09:36:07;51803.06;;;-145.06;70.27
6530;BME280;3298;42.688;23.366;2023-01-28T09:38:35;51844.00;;;-145.06;69.25
6530;BME280;3298;42.688;23.366;2023-01-28T09:41:14;51844.00;;;-145.06;69.83
6530;BME280;3298;42.688;23.366;2023-01-28T09:43:53;51815.34;;;-145.06;70.16
6530;BME280;3298;42.688;23.366;2023-01-28T09:46:31;51837.84;;;-145.06;69.83
6530;BME280;3298;42.688;23.366;2023-01-28T09:48:59;51833.75;;;-145.06;69.41
6530;BME280;3298;42.688;23.366;2023-01-28T09:51:34;51811.25;;;-145.06;70.11
6530;BME280;3298;42.688;23.366;2023-01-28T09:54:05;51815.34;;;-145.06;71.16
6530;BME280;3298;42.688;23.366;2023-01-28T09:56:41;51823.53;;;-145.06;69.59
6530;BME280;3298;42.688;23.366;2023-01-28T09:59:17;51852.19;;;-145.06;70.72
6530;BME280;3298;42.688;23.366;2023-01-28T10:01:52;51835.81;;;-145.06;69.94
6530;BME280;3298;42.688;23.366;2023-01-28T10:04:48;51852.19;;;-145.06;69.80
6530;BME280;3298;42.688;23.366;2023-01-28T10:07:29;51809.19;;;-145.06;69.60
6530;BME280;3298;42.688;23.366;2023-01-28T10:10:05;51823.53;;;-145.06;69.48
6530;BME280;3298;42.688;23.366;2023-01-28T10:12:46;51835.81;;;-145.06;68.53
6530;BME280;3298;42.688;23.366;2023-01-28T10:18:28;51821.47;;;-145.06;70.07
6530;BME280;3298;42.688;23.366;2023-01-28T10:21:02;51850.13;;;-145.06;70.25
6530;BME280;3298;42.688;23.366;2023-01-28T10:23:38;51848.09;;;-145.06;69.15
6530;BME280;3298;42.688;23.366;2023-01-28T10:26:16;51817.38;;;-145.06;69.78
6530;BME280;3298;42.688;23.366;2023-01-28T10:28:50;51825.56;;;-145.06;69.31
6530;BME280;3298;42.688;23.366;2023-01-28T10:31:19;51839.91;;;-145.06;69.06
6530;BME280;3298;42.688;23.366;2023-01-28T10:33:48;51837.84;;;-145.06;69.10
6530;BME280;3298;42.688;23.366;2023-01-28T10:36:15;51848.09;;;-145.06;69.40
6530;BME280;3298;42.688;23.366;2023-01-28T10:38:43;51825.56;;;-145.06;68.99
6530;BME280;3298;42.688;23.366;2023-01-28T10:41:12;51827.63;;;-145.06;68.73
6530;BME280;3298;42.688;23.366;2023-01-28T10:43:42;51839.91;;;-145.06;69.21
6530;BME280;3298;42.688;23.366;2023-01-28T10:46:13;51829.66;;;-145.06;67.79
6530;BME280;3298;42.688;23.366;2023-01-28T10:48:44;51841.94;;;-145.06;69.21
6530;BME280;3298;42.688;23.366;2023-01-28T10:51:14;51844.00;;;-145.06;69.96
6530;BME280;3298;42.688;23.366;2023-01-28T10:53:42;51817.38;;;-145.06;68.76
6530;BME280;3298;42.688;23.366;2023-01-28T10:56:11;51815.34;;;-145.06;68.48
6530;BME280;3298;42.688;23.366;2023-01-28T10:58:56;51841.94;;;-145.06;68.75
6530;BME280;3298;42.688;23.366;2023-01-28T11:01:24;51864.47;;;-145.06;68.81
6530;BME280;3298;42.688;23.366;2023-01-28T11:03:53;51821.47;;;-145.06;68.79
6530;BME280;3298;42.688;23.366;2023-01-28T11:06:26;51823.53;;;-145.06;68.80
6530;BME280;3298;42.688;23.366;2023-01-28T11:08:53;51811.25;;;-145.06;68.13
6530;BME280;3298;42.688;23.366;2023-01-28T11:11:24;51819.44;;;-145.06;67.03
6530;BME280;3298;42.688;23.366;2023-01-28T11:13:53;51856.28;;;-145.06;67.27
6530;BME280;3298;42.688;23.366;2023-01-28T11:16:23;51841.94;;;-145.06;66.54
6530;BME280;3298;42.688;23.366;2023-01-28T11:18:52;51827.63;;;-145.06;66.07
6530;BME280;3298;42.688;23.366;2023-01-28T11:21:22;51815.34;;;-145.06;65.73
6530;BME280;3298;42.688;23.366;2023-01-28T11:23:54;51827.63;;;-145.06;65.18
6530;BME280;3298;42.688;23.366;2023-01-28T11:26:24;51805.09;;;-145.06;65.80
6530;BME280;3298;42.688;23.366;2023-01-28T11:28:52;51815.34;;;-145.06;65.77
6530;BME280;3298;42.688;23.366;2023-01-28T11:31:20;51837.84;;;-145.06;66.20
6530;BME280;3298;42.688;23.366;2023-01-28T11:33:51;51841.94;;;-145.06;65.83
6530;BME280;3298;42.688;23.366;2023-01-28T11:36:20;51827.63;;;-145.06;65.40
6530;BME280;3298;42.688;23.366;2023-01-28T11:38:51;51844.00;;;-145.06;65.43
6530;BME280;3298;42.688;23.366;2023-01-28T11:41:25;51817.38;;;-145.06;65.91
6530;BME280;3298;42.688;23.366;2023-01-28T11:43:53;51823.53;;;-145.06;64.58
6530;BME280;3298;42.688;23.366;2023-01-28T11:46:37;51819.44;;;-145.06;64.59
6530;BME280;3298;42.688;23.366;2023-01-28T11:49:17;51823.53;;;-145.06;65.63
6530;BME280;3298;42.688;23.366;2023-01-28T11:51:49;51858.31;;;-145.06;64.85
6530;BME280;3298;42.688;23.366;2023-01-28T11:54:31;51807.16;;;-145.06;65.19
6530;BME280;3298;42.688;23.366;2023-01-28T11:57:10;51850.13;;;-145.06;63.87
6530;BME280;3298;42.688;23.366;2023-01-28T11:59:55;51815.34;;;-145.06;64.48
6530;BME280;3298;42.688;23.366;2023-01-28T12:02:39;51811.25;;;-145.06;64.33
6530;BME280;3298;42.688;23.366;2023-01-28T12:05:32;51807.16;;;-145.06;64.13
6530;BME280;3298;42.688;23.366;2023-01-28T12:08:08;51841.94;;;-145.06;65.01
6530;BME280;3298;42.688;23.366;2023-01-28T12:10:45;51819.44;;;-145.06;64.87
6530;BME280;3298;42.688;23.366;2023-01-28T12:13:24;51796.91;;;-145.06;64.25
6530;BME280;3298;42.688;23.366;2023-01-28T12:16:09;51827.63;;;-145.06;64.66
6530;BME280;3298;42.688;23.366;2023-01-28T12:18:52;51811.25;;;-145.06;63.69
6530;BME280;3298;42.688;23.366;2023-01-28T12:21:35;51819.44;;;-145.06;63.92
6530;BME280;3298;42.688;23.366;2023-01-28T12:24:15;51794.88;;;-145.06;64.00
6530;BME280;3298;42.688;23.366;2023-01-28T12:26:51;51807.16;;;-145.06;63.35
6530;BME280;3298;42.688;23.366;2023-01-28T12:29:27;51813.28;;;-145.06;63.45
6530;BME280;3298;42.688;23.366;2023-01-28T12:32:15;51833.75;;;-145.06;63.73
6530;BME280;3298;42.688;23.366;2023-01-28T12:38:06;51807.16;;;-145.06;64.74
6530;BME280;3298;42.688;23.366;2023-01-28T12:40:52;51831.72;;;-145.06;64.62
6530;BME280;3298;42.688;23.366;2023-01-28T12:43:26;51833.75;;;-145.06;64.87
6530;BME280;3298;42.688;23.366;2023-01-28T12:46:03;51882.88;;;-145.06;64.21
6530;BME280;3298;42.688;23.366;2023-01-28T12:48:34;51813.28;;;-145.06;64.24
6530;BME280;3298;42.688;23.366;2023-01-28T12:51:06;51848.09;;;-145.06;64.38
6530;BME280;3298;42.688;23.366;2023-01-28T12:53:39;51807.16;;;-145.06;64.55
6530;BME280;3298;42.688;23.366;2023-01-28T12:56:13;51811.25;;;-145.06;64.68
6530;BME280;3298;42.688;23.366;2023-01-28T12:58:47;51803.06;;;-145.06;63.82
6530;BME280;3298;42.688;23.366;2023-01-28T13:01:22;51817.38;;;-145.06;63.15
6530;BME280;3298;42.688;23.366;2023-01-28T13:03:55;51823.53;;;-145.06;64.40
6530;BME280;3298;42.688;23.366;2023-01-28T13:06:28;51827.63;;;-145.06;64.84
6530;BME280;3298;42.688;23.366;2023-01-28T13:09:00;51846.03;;;-145.06;64.68
6530;BME280;3298;42.688;23.366;2023-01-28T13:11:32;51811.25;;;-145.06;64.47
6530;BME280;3298;42.688;23.366;2023-01-28T13:14:02;51835.81;;;-145.06;64.35
6530;BME280;3298;42.688;23.366;2023-01-28T13:16:29;51835.81;;;-145.06;64.50
6530;BME280;3298;42.688;23.366;2023-01-28T13:19:06;51856.28;;;-145.06;64.55
6530;BME280;3298;42.688;23.366;2023-01-28T13:21:35;51813.28;;;-145.06;63.49
6530;BME280;3298;42.688;23.366;2023-01-28T13:24:05;51821.47;;;-145.06;64.42
6530;BME280;3298;42.688;23.366;2023-01-28T13:26:41;51827.63;;;-145.06;64.02
6530;BME280;3298;42.688;23.366;2023-01-28T13:29:30;51841.94;;;-145.06;63.85
6530;BME280;3298;42.688;23.366;2023-01-28T13:31:59;51825.56;;;-145.06;63.98
6530;BME280;3298;42.688;23.366;2023-01-28T13:34:32;51835.81;;;-145.06;63.74
6530;BME280;3298;42.688;23.366;2023-01-28T13:37:14;51803.06;;;-145.06;63.68
6530;BME280;3298;42.688;23.366;2023-01-28T13:39:46;51839.91;;;-145.06;63.08
6530;BME280;3298;42.688;23.366;2023-01-28T13:42:23;51819.44;;;-145.06;63.87
6530;BME280;3298;42.688;23.366;2023-01-28T13:44:52;51833.75;;;-145.06;63.04
6530;BME280;3298;42.688;23.366;2023-01-28T13:47:24;51821.47;;;-145.06;63.12
6530;BME280;3298;42.688;23.366;2023-01-28T13:49:57;51821.47;;;-145.06;63.73
6530;BME280;3298;42.688;23.366;2023-01-28T13:52:28;51848.09;;;-145.06;64.26
6530;BME280;3298;42.688;23.366;2023-01-28T13:55:00;51856.28;;;-145.06;64.38
6530;BME280;3298;42.688;23.366;2023-01-28T14:00:33;51839.91;;;-145.06;64.66
6530;BME280;3298;42.688;23.366;2023-01-28T14:06:17;51829.66;;;-145.06;64.76
6530;BME280;3298;42.688;23.366;2023-01-28T14:09:13;51811.25;;;-145.06;64.81
6530;BME280;3298;42.688;23.366;2023-01-28T14:15:05;51827.63;;;-145.06;66.35
6530;BME280;3298;42.688;23.366;2023-01-28T14:17:42;51819.44;;;-145.06;66.64
6530;BME280;3298;42.688;23.366;2023-01-28T14:20:16;51841.94;;;-145.06;67.00
6530;BME280;3298;42.688;23.366;2023-01-28T14:22:43;51841.94;;;-145.06;67.14
6530;BME280;3298;42.688;23.366;2023-01-28T14:25:12;51833.75;;;-145.06;67.24
6530;BME280;3298;42.688;23.366;2023-01-28T14:27:43;51829.66;;;-145.06;68.10
6530;BME280;3298;42.688;23.366;2023-01-28T14:30:17;51827.63;;;-145.06;67.38
6530;BME280;3298;42.688;23.366;2023-01-28T14:32:48;51841.94;;;-145.06;68.22
6530;BME280;3298;42.688;23.366;2023-01-28T14:35:18;51860.38;;;-145.06;67.63
6530;BME280;3298;42.688;23.366;2023-01-28T14:37:45;51846.03;;;-145.06;67.74
6530;BME280;3298;42.688;23.366;2023-01-28T14:40:14;51829.66;;;-145.06;67.70
6530;BME280;3298;42.688;23.366;2023-01-28T14:42:44;51829.66;;;-145.06;68.34
6530;BME280;3298;42.688;23.366;2023-01-28T14:45:21;51835.81;;;-145.06;68.10
6530;BME280;3298;42.688;23.366;2023-01-28T14:48:10;51835.81;;;-145.06;67.97
6530;BME280;3298;42.688;23.366;2023-01-28T14:50:54;51839.91;;;-145.06;68.00
6530;BME280;3298;42.688;23.366;2023-01-28T14:53:55;51844.00;;;-145.06;67.94
6530;BME280;3298;42.688;23.366;2023-01-28T14:56:38;51801.00;;;-145.06;68.16
6530;BME280;3298;42.688;23.366;2023-01-28T14:59:16;51825.56;;;-145.06;68.73
6530;BME280;3298;42.688;23.366;2023-01-28T15:01:45;51829.66;;;-145.06;68.90
6530;BME280;3298;42.688;23.366;2023-01-28T15:04:27;51827.63;;;-145.06;68.71
6530;BME280;3298;42.688;23.366;2023-01-28T15:06:55;51848.09;;;-145.06;68.69
6530;BME280;3298;42.688;23.366;2023-01-28T15:09:23;51827.63;;;-145.06;68.90
6530;BME280;3298;42.688;23.366;2023-01-28T15:11:52;51833.75;;;-145.06;68.91
6530;BME280;3298;42.688;23.366;2023-01-28T15:14:25;51846.03;;;-145.06;69.31
6530;BME280;3298;42.688;23.366;2023-01-28T15:16:53;51839.91;;;-145.06;69.72
6530;BME280;3298;42.688;23.366;2023-01-28T15:19:26;51839.91;;;-145.06;69.05
6530;BME280;3298;42.688;23.366;2023-01-28T15:21:55;51817.38;;;-145.06;69.23
6530;BME280;3298;42.688;23.366;2023-01-28T15:24:23;51819.44;;;-145.06;69.27
6530;BME280;3298;42.688;23.366;2023-01-28T15:26:50;51811.25;;;-145.06;69.18
6530;BME280;3298;42.688;23.366;2023-01-28T15:29:25;51852.19;;;-145.06;69.34
6530;BME280;3298;42.688;23.366;2023-01-28T15:31:52;51821.47;;;-145.06;69.73
6530;BME280;3298;42.688;23.366;2023-01-28T15:34:19;51815.34;;;-145.06;69.41
6530;BME280;3298;42.688;23.366;2023-01-28T15:36:48;51846.03;;;-145.06;69.23
6530;BME280;3298;42.688;23.366;2023-01-28T15:39:17;51831.72;;;-145.06;69.50
6530;BME280;3298;42.688;23.366;2023-01-28T15:41:46;51825.56;;;-145.06;69.28
6530;BME280;3298;42.688;23.366;2023-01-28T15:44:16;51833.75;;;-145.06;69.37
6530;BME280;3298;42.688;23.366;2023-01-28T15:46:43;51850.13;;;-145.06;69.94
6530;BME280;3298;42.688;23.366;2023-01-28T15:49:13;51864.47;;;-145.06;70.17
6530;BME280;3298;42.688;23.366;2023-01-28T15:51:48;51825.56;;;-145.06;69.88
6530;BME280;3298;42.688;23.366;2023-01-28T15:54:16;51846.03;;;-145.06;70.10
6530;BME280;3298;42.688;23.366;2023-01-28T15:56:43;51839.91;;;-145.06;70.82
6530;BME280;3298;42.688;23.366;2023-01-28T15:59:18;51844.00;;;-145.06;70.84
6530;BME280;3298;42.688;23.366;2023-01-28T16:01:45;51813.28;;;-145.06;71.21
6530;BME280;3298;42.688;23.366;2023-01-28T16:04:22;51823.53;;;-145.06;70.85
6530;BME280;3298;42.688;23.366;2023-01-28T16:06:51;51831.72;;;-145.06;70.58
6530;BME280;3298;42.688;23.366;2023-01-28T16:09:22;51833.75;;;-145.06;71.37
6530;BME280;3298;42.688;23.366;2023-01-28T16:11:50;51848.09;;;-145.06;71.04
6530;BME280;3298;42.688;23.366;2023-01-28T16:14:23;51831.72;;;-145.06;71.21
6530;BME280;3298;42.688;23.366;2023-01-28T16:16:52;51852.19;;;-145.06;72.34
6530;BME280;3298;42.688;23.366;2023-01-28T16:19:29;51848.09;;;-145.06;71.84
6530;BME280;3298;42.688;23.366;2023-01-28T16:21:58;51835.81;;;-145.06;72.22
6530;BME280;3298;42.688;23.366;2023-01-28T16:24:26;51831.72;;;-145.06;72.42
6530;BME280;3298;42.688;23.366;2023-01-28T16:26:55;51819.44;;;-145.06;72.25
6530;BME280;3298;42.688;23.366;2023-01-28T16:29:22;51839.91;;;-145.06;72.21
6530;BME280;3298;42.688;23.366;2023-01-28T16:31:50;51846.03;;;-145.06;73.26
6530;BME280;3298;42.688;23.366;2023-01-28T16:34:17;51854.22;;;-145.06;72.86
6530;BME280;3298;42.688;23.366;2023-01-28T16:36:44;51835.81;;;-145.06;72.56
6530;BME280;3298;42.688;23.366;2023-01-28T16:39:12;51856.28;;;-145.06;72.32
6530;BME280;3298;42.688;23.366;2023-01-28T16:41:41;51844.00;;;-145.06;71.82
6530;BME280;3298;42.688;23.366;2023-01-28T16:44:11;51833.75;;;-145.06;72.36
6530;BME280;3298;42.688;23.366;2023-01-28T16:46:38;51839.91;;;-145.06;72.68
6530;BME280;3298;42.688;23.366;2023-01-28T16:49:05;51803.06;;;-145.06;72.60
6530;BME280;3298;42.688;23.366;2023-01-28T16:51:32;51837.84;;;-145.06;72.21
6530;BME280;3298;42.688;23.366;2023-01-28T16:54:00;51827.63;;;-145.06;73.08
6530;BME280;3298;42.688;23.366;2023-01-28T16:56:29;51835.81;;;-145.06;72.43
6530;BME280;3298;42.688;23.366;2023-01-28T16:58:56;51835.81;;;-145.06;72.32
6530;BME280;3298;42.688;23.366;2023-01-28T17:01:23;51831.72;;;-145.06;72.55
6530;BME280;3298;42.688;23.366;2023-01-28T17:03:50;51837.84;;;-145.06;72.37
6530;BME280;3298;42.688;23.366;2023-01-28T17:06:18;51837.84;;;-145.06;73.46
6530;BME280;3298;42.688;23.366;2023-01-28T17:08:45;51801.00;;;-145.06;73.55
6530;BME280;3298;42.688;23.366;2023-01-28T17:11:12;51856.28;;;-145.06;72.96
6530;BME280;3298;42.688;23.366;2023-01-28T17:13:40;51811.25;;;-145.06;72.74
6530;BME280;3298;42.688;23.366;2023-01-28T17:16:07;51825.56;;;-145.06;73.59
6530;BME280;3298;42.688;23.366;2023-01-28T17:18:34;51827.63;;;-145.06;73.78
6530;BME280;3298;42.688;23.366;2023-01-28T17:21:01;51839.91;;;-145.06;74.21
6530;BME280;3298;42.688;23.366;2023-01-28T17:23:28;51852.19;;;-145.06;74.33
6530;BME280;3298;42.688;23.366;2023-01-28T17:25:55;51823.53;;;-145.06;74.38
6530;BME280;3298;42.688;23.366;2023-01-28T17:28:22;51848.09;;;-145.06;74.69
6530;BME280;3298;42.688;23.366;2023-01-28T17:30:50;51850.13;;;-145.06;75.89
6530;BME280;3298;42.688;23.366;2023-01-28T17:33:16;51825.56;;;-145.06;75.29
6530;BME280;3298;42.688;23.366;2023-01-28T17:35:45;51817.38;;;-145.06;74.90
6530;BME280;3298;42.688;23.366;2023-01-28T17:38:12;51852.19;;;-145.06;75.47
6530;BME280;3298;42.688;23.366;2023-01-28T17:40:39;51852.19;;;-145.06;75.42
6530;BME280;3298;42.688;23.366;2023-01-28T17:43:06;51841.94;;;-145.06;75.60
6530;BME280;3298;42.688;23.366;2023-01-28T17:45:33;51837.84;;;-145.06;76.18
6530;BME280;3298;42.688;23.366;2023-01-28T17:48:01;51835.81;;;-145.06;76.09
6530;BME280;3298;42.688;23.366;2023-01-28T17:50:28;51837.84;;;-145.06;76.96
6530;BME280;3298;42.688;23.366;2023-01-28T17:52:55;51831.72;;;-145.06;77.17
6530;BME280;3298;42.688;23.366;2023-01-28T17:55:22;51833.75;;;-145.06;77.06
6530;BME280;3298;42.688;23.366;2023-01-28T17:57:49;51856.28;;;-145.06;77.57
6530;BME280;3298;42.688;23.366;2023-01-28T18:00:17;51827.63;;;-145.06;76.73
6530;BME280;3298;42.688;23.366;2023-01-28T18:02:45;51831.72;;;-145.06;77.80
6530;BME280;3298;42.688;23.366;2023-01-28T18:05:15;51868.56;;;-145.06;76.49
6530;BME280;3298;42.688;23.366;2023-01-28T18:07:42;51839.91;;;-145.06;77.00
6530;BME280;3298;42.688;23.366;2023-01-28T18:10:11;51825.56;;;-145.06;75.63
6530;BME280;3298;42.688;23.366;2023-01-28T18:12:38;51862.41;;;-145.06;75.79
6530;BME280;3298;42.688;23.366;2023-01-28T18:15:06;51841.94;;;-145.06;75.55
6530;BME280;3298;42.688;23.366;2023-01-28T18:17:33;51831.72;;;-145.06;75.34
6530;BME280;3298;42.688;23.366;2023-01-28T18:19:59;51856.28;;;-145.06;75.24
6530;BME280;3298;42.688;23.366;2023-01-28T18:22:29;51841.94;;;-145.06;75.98
6530;BME280;3298;42.688;23.366;2023-01-28T18:24:56;51844.00;;;-145.06;74.96
6530;BME280;3298;42.688;23.366;2023-01-28T18:27:23;51839.91;;;-145.06;74.08
6530;BME280;3298;42.688;23.366;2023-01-28T18:29:49;51841.94;;;-145.06;75.35
6530;BME280;3298;42.688;23.366;2023-01-28T18:32:17;51827.63;;;-145.06;74.95
6530;BME280;3298;42.688;23.366;2023-01-28T18:34:44;51825.56;;;-145.06;75.26
6530;BME280;3298;42.688;23.366;2023-01-28T18:37:10;51852.19;;;-145.06;74.87
6530;BME280;3298;42.688;23.366;2023-01-28T18:39:38;51809.19;;;-145.06;75.11
6530;BME280;3298;42.688;23.366;2023-01-28T18:42:05;51831.72;;;-145.06;74.45
6530;BME280;3298;42.688;23.366;2023-01-28T18:44:33;51852.19;;;-145.06;74.64
6530;BME280;3298;42.688;23.366;2023-01-28T18:47:00;51831.72;;;-145.06;75.38
6530;BME280;3298;42.688;23.366;2023-01-28T18:49:26;51827.63;;;-145.06;75.55
6530;BME280;3298;42.688;23.366;2023-01-28T18:51:53;51846.03;;;-145.06;74.56
6530;BME280;3298;42.688;23.366;2023-01-28T18:54:20;51823.53;;;-145.06;74.61
6530;BME280;3298;42.688;23.366;2023-01-28T18:56:49;51839.91;;;-145.06;74.81
6530;BME280;3298;42.688;23.366;2023-01-28T18:59:16;51835.81;;;-145.06;74.25
6530;BME280;3298;42.688;23.366;2023-01-28T19:01:43;51839.91;;;-145.06;74.69
6530;BME280;3298;42.688;23.366;2023-01-28T19:04:12;51827.63;;;-145.06;75.21
6530;BME280;3298;42.688;23.366;2023-01-28T19:06:40;51852.19;;;-145.06;75.07
6530;BME280;3298;42.688;23.366;2023-01-28T19:09:09;51827.63;;;-145.06;74.95
6530;BME280;3298;42.688;23.366;2023-01-28T19:11:36;51815.34;;;-145.06;75.13
6530;BME280;3298;42.688;23.366;2023-01-28T19:14:06;51856.28;;;-145.06;75.11
6530;BME280;3298;42.688;23.366;2023-01-28T19:16:34;51856.28;;;-145.06;75.40
6530;BME280;3298;42.688;23.366;2023-01-28T19:19:02;51839.91;;;-145.06;76.15
6530;BME280;3298;42.688;23.366;2023-01-28T19:21:30;51868.56;;;-145.06;76.55
6530;BME280;3298;42.688;23.366;2023-01-28T19:23:59;51852.19;;;-145.06;77.32
6530;BME280;3298;42.688;23.366;2023-01-28T19:26:27;51856.28;;;-145.06;76.47
6530;BME280;3298;42.688;23.366;2023-01-28T19:28:55;51850.13;;;-145.06;76.33
6530;BME280;3298;42.688;23.366;2023-01-28T19:31:24;51839.91;;;-145.06;76.79
6530;BME280;3298;42.688;23.366;2023-01-28T19:33:56;51848.09;;;-145.06;76.21
6530;BME280;3298;42.688;23.366;2023-01-28T19:36:24;51831.72;;;-145.06;77.12
6530;BME280;3298;42.688;23.366;2023-01-28T19:38:51;51844.00;;;-145.06;75.94
6530;BME280;3298;42.688;23.366;2023-01-28T19:41:18;51848.09;;;-145.06;76.12
6530;BME280;3298;42.688;23.366;2023-01-28T19:43:44;51844.00;;;-145.06;76.46
6530;BME280;3298;42.688;23.366;2023-01-28T19:46:13;51848.09;;;-145.06;76.02
6530;BME280;3298;42.688;23.366;2023-01-28T19:48:42;51846.03;;;-145.06;75.71
6530;BME280;3298;42.688;23.366;2023-01-28T19:51:10;51817.38;;;-145.06;75.56
6530;BME280;3298;42.688;23.366;2023-01-28T19:53:39;51839.91;;;-145.06;75.39
6530;BME280;3298;42.688;23.366;2023-01-28T19:56:08;51827.63;;;-145.06;75.99
6530;BME280;3298;42.688;23.366;2023-01-28T19:58:37;51837.84;;;-145.06;75.15
6530;BME280;3298;42.688;23.366;2023-01-28T20:01:05;51854.22;;;-145.06;75.11
6530;BME280;3298;42.688;23.366;2023-01-28T20:03:32;51866.50;;;-145.06;74.58
6530;BME280;3298;42.688;23.366;2023-01-28T20:06:04;51848.09;;;-145.06;74.57
6530;BME280;3298;42.688;23.366;2023-01-28T20:08:32;51819.44;;;-145.06;74.69
6530;BME280;3298;42.688;23.366;2023-01-28T20:11:03;51815.34;;;-145.06;75.02
6530;BME280;3298;42.688;23.366;2023-01-28T20:13:31;51829.66;;;-145.06;74.15
6530;BME280;3298;42.688;23.366;2023-01-28T20:15:59;51886.97;;;-145.06;74.40
6530;BME280;3298;42.688;23.366;2023-01-28T20:18:29;51844.00;;;-145.06;74.73
6530;BME280;3298;42.688;23.366;2023-01-28T20:20:56;51823.53;;;-145.06;74.67
6530;BME280;3298;42.688;23.366;2023-01-28T20:23:24;51835.81;;;-145.06;74.63
6530;BME280;3298;42.688;23.366;2023-01-28T20:25:51;51839.91;;;-145.06;74.62
6530;BME280;3298;42.688;23.366;2023-01-28T20:28:19;51835.81;;;-145.06;74.61
6530;BME280;3298;42.688;23.366;2023-01-28T20:30:46;51848.09;;;-145.06;74.55
6530;BME280;3298;42.688;23.366;2023-01-28T20:33:13;51835.81;;;-145.06;74.92
6530;BME280;3298;42.688;23.366;2023-01-28T20:35:41;51852.19;;;-145.06;74.69
6530;BME280;3298;42.688;23.366;2023-01-28T20:38:08;51835.81;;;-145.06;75.28
6530;BME280;3298;42.688;23.366;2023-01-28T20:40:37;51839.91;;;-145.06;75.36
6530;BME280;3298;42.688;23.366;2023-01-28T20:43:06;51864.47;;;-145.06;75.33
6530;BME280;3298;42.688;23.366;2023-01-28T20:45:33;51860.38;;;-145.06;74.65
6530;BME280;3298;42.688;23.366;2023-01-28T20:48:00;51839.91;;;-145.06;75.05
6530;BME280;3298;42.688;23.366;2023-01-28T20:50:27;51837.84;;;-145.06;75.19
6530;BME280;3298;42.688;23.366;2023-01-28T20:52:54;51821.47;;;-145.06;75.29
6530;BME280;3298;42.688;23.366;2023-01-28T20:55:20;51866.50;;;-145.06;75.95
6530;BME280;3298;42.688;23.366;2023-01-28T20:57:50;51835.81;;;-145.06;75.65
6530;BME280;3298;42.688;23.366;2023-01-28T21:00:18;51835.81;;;-145.06;75.60
6530;BME280;3298;42.688;23.366;2023-01-28T21:02:45;51833.75;;;-145.06;75.84
6530;BME280;3298;42.688;23.366;2023-01-28T21:05:12;51858.31;;;-145.06;76.35
6530;BME280;3298;42.688;23.366;2023-01-28T21:07:39;51839.91;;;-145.06;76.63
6530;BME280;3298;42.688;23.366;2023-01-28T21:10:06;51848.09;;;-145.06;77.67